EVRA/RIX METAR and TAF weather

Enter ICAO airport designator
Station Type Date Time Source
EVRA METAR 2021/01/27 13:50 UTC NOAA

EVRA 271350Z 31008KT 280V340 9999 SCT008 BKN013 OVC015 01/M00 Q1001 R36/490393 NOSIG


Station Type Date Time Source
EVRA Decoded METAR 2021/01/27 13:50 UTC NOAA

Riga International Airport, Latvia (EVRA) 56-55N 023-58E
Jan 27, 2021 - 08:50 AM EST / 2021.01.27 1350 UTC
Wind: from the NW (310 degrees) at 9 MPH (8 KT) (direction variable):0
Visibility: greater than 7 mile(s):0
Sky conditions: overcast
Temperature: 33 F (1 C)
Windchill: 24 F (-4 C):1
Dew Point: 32 F (0 C)
Relative Humidity: 93%
Pressure (altimeter): 29.56 in. Hg (1001 hPa)
ob: EVRA 271350Z 31008KT 280V340 9999 SCT008 BKN013 OVC015 01/M00 Q1001 R36/490393 NOSIG
cycle: 14

Station Type Date Time Source
EVRA TAF 2021/01/27 15:09 UTC NOAA

TAF TAF EVRA 271407Z 2715/2815 30007KT 8000 OVC010
TEMPO 2715/2718 4000 RASN BR BKN006
BECMG 2718/2720 OVC015
TEMPO 2723/2808 3000 BR SCT004
BECMG 2804/2806 16007KT
TEMPO 2811/2815 3000 SN BKN005 OVC010 PROB40
TEMPO 2811/2814 FZRA

Example: see airport list